Time;durP1;ratioP1;P1;durP2;ratioP2;P2;SDS_P1;SDS_P2;PMS_P1;PMS_P2;Temp;Humidity;BMP_temperature;BMP_pressure;BME280_temperature;BME280_humidity;BME280_pressure;Samples;Min_cycle;Max_cycle;Signal;HPM_P1;HPM_P2
2021/01/25 00:01:06;;;;;;;8.77;5.77;;;2.40;99.90;;;;;;5045714;28;20649;-67
2021/01/25 00:03:33;;;;;;;8.20;5.90;;;2.30;99.90;;;;;;5034487;28;20180;-67
2021/01/25 00:05:58;;;;;;;7.63;5.53;;;2.30;99.90;;;;;;5043295;28;20433;-68
2021/01/25 00:08:24;;;;;;;10.20;5.63;;;2.30;99.90;;;;;;5037222;28;20819;-67
2021/01/25 00:10:50;;;;;;;7.50;6.03;;;2.40;99.90;;;;;;5054080;28;20183;-70
2021/01/25 00:13:15;;;;;;;7.43;5.80;;;2.40;99.90;;;;;;5051416;28;20274;-67
2021/01/25 00:15:41;;;;;;;7.73;6.00;;;2.40;99.90;;;;;;5053828;28;20302;-69
2021/01/25 00:18:07;;;;;;;8.60;5.70;;;2.40;99.90;;;;;;5038589;28;20175;-68
2021/01/25 00:20:32;;;;;;;7.80;5.40;;;2.50;99.90;;;;;;5054062;28;20179;-69
2021/01/25 00:22:58;;;;;;;6.53;5.27;;;2.50;99.90;;;;;;5052576;28;20170;-67
2021/01/25 00:25:23;;;;;;;10.53;6.50;;;2.50;99.90;;;;;;5053871;28;20187;-68
2021/01/25 00:27:49;;;;;;;6.77;5.00;;;2.50;99.90;;;;;;5052395;28;20179;-68
2021/01/25 00:30:17;;;;;;;9.33;5.30;;;2.40;99.90;;;;;;5053702;28;20266;-67
2021/01/25 00:32:44;;;;;;;7.90;6.00;;;2.40;99.90;;;;;;5050857;28;20195;-67
2021/01/25 00:35:10;;;;;;;8.30;5.93;;;2.30;99.90;;;;;;5052240;28;20918;-67
2021/01/25 00:37:36;;;;;;;10.37;6.17;;;2.30;99.90;;;;;;5034051;28;20448;-68
2021/01/25 00:40:02;;;;;;;7.70;5.63;;;2.30;99.90;;;;;;5053598;28;20802;-69
2021/01/25 00:42:28;;;;;;;8.00;5.40;;;2.30;99.90;;;;;;5053356;28;20171;-67
2021/01/25 00:44:53;;;;;;;7.57;5.80;;;2.30;99.90;;;;;;5040876;28;20440;-70
2021/01/25 00:47:19;;;;;;;8.70;6.30;;;2.20;99.90;;;;;;5043990;28;20183;-68
2021/01/25 00:49:44;;;;;;;7.90;6.00;;;2.20;99.90;;;;;;5053149;28;20259;-66
2021/01/25 00:52:10;;;;;;;7.23;5.07;;;2.20;99.90;;;;;;5052066;28;20256;-67
2021/01/25 00:54:35;;;;;;;9.17;6.23;;;2.30;99.90;;;;;;5053185;28;20548;-68
2021/01/25 00:57:01;;;;;;;9.67;5.87;;;2.40;99.90;;;;;;5053340;28;20175;-70
2021/01/25 00:59:27;;;;;;;8.13;6.50;;;2.40;99.90;;;;;;5050376;28;20185;-68
2021/01/25 01:01:52;;;;;;;9.10;6.00;;;2.40;99.90;;;;;;5053170;28;20171;-70
2021/01/25 01:04:18;;;;;;;7.50;5.10;;;2.50;99.90;;;;;;5035264;28;20170;-69
2021/01/25 01:06:43;;;;;;;11.93;6.07;;;2.50;99.90;;;;;;5048010;28;20207;-68
2021/01/25 01:09:09;;;;;;;8.10;5.47;;;2.50;99.90;;;;;;5049693;28;20175;-67
2021/01/25 01:11:35;;;;;;;8.23;5.40;;;2.40;99.90;;;;;;5052948;28;20262;-67
2021/01/25 01:14:01;;;;;;;8.80;6.30;;;2.20;99.90;;;;;;5052800;28;20557;-66
2021/01/25 01:16:27;;;;;;;6.70;5.37;;;2.20;99.90;;;;;;5044587;28;20410;-68
2021/01/25 01:18:53;;;;;;;9.70;5.73;;;2.20;99.90;;;;;;5051792;28;20171;-68
2021/01/25 01:21:18;;;;;;;7.17;5.60;;;2.20;99.90;;;;;;5048331;28;20202;-68
2021/01/25 01:23:44;;;;;;;6.87;5.63;;;2.30;99.90;;;;;;5049428;28;20199;-67
2021/01/25 01:26:09;;;;;;;8.17;6.00;;;2.30;99.90;;;;;;5051746;28;20182;-69
2021/01/25 01:28:35;;;;;;;7.53;5.73;;;2.30;99.90;;;;;;5051271;28;20634;-70
2021/01/25 01:31:01;;;;;;;6.93;5.70;;;2.30;99.90;;;;;;5042681;28;20232;-68
2021/01/25 01:33:26;;;;;;;10.07;6.00;;;2.30;99.90;;;;;;5052481;28;20194;-68
2021/01/25 01:35:52;;;;;;;8.90;5.27;;;2.30;99.90;;;;;;5051102;28;20171;-68
2021/01/25 01:38:17;;;;;;;7.93;5.70;;;2.30;99.90;;;;;;5041775;28;20625;-69
2021/01/25 01:40:43;;;;;;;6.70;5.27;;;2.30;99.90;;;;;;5033875;28;20535;-68
2021/01/25 01:43:08;;;;;;;9.67;6.03;;;2.40;99.90;;;;;;5035129;28;20634;-67
2021/01/25 01:45:34;;;;;;;5.40;4.90;;;2.40;99.90;;;;;;5043305;28;20179;-67
2021/01/25 01:48:00;;;;;;;8.33;5.33;;;2.50;99.90;;;;;;5043771;28;20203;-68
2021/01/25 01:50:26;;;;;;;7.13;5.40;;;2.50;99.90;;;;;;5052150;28;20211;-69
2021/01/25 01:52:52;;;;;;;7.97;5.33;;;2.50;99.90;;;;;;5052431;28;20230;-69
2021/01/25 01:55:18;;;;;;;8.83;5.47;;;2.50;99.90;;;;;;5051820;28;20411;-67
2021/01/25 01:57:49;;;;;;;6.80;5.43;;;2.50;99.90;;;;;;5052058;28;20521;-67
2021/01/25 02:00:16;;;;;;;7.50;5.00;;;2.50;99.90;;;;;;5043676;28;20425;-67
2021/01/25 02:02:42;;;;;;;8.77;5.40;;;2.50;99.90;;;;;;5032356;28;20421;-68
2021/01/25 02:05:08;;;;;;;7.13;5.40;;;2.50;99.90;;;;;;5034098;28;20475;-70
2021/01/25 02:07:35;;;;;;;7.47;5.30;;;2.40;99.90;;;;;;5051699;28;20613;-69
2021/01/25 02:10:03;;;;;;;9.50;5.90;;;2.30;99.90;;;;;;5051953;28;20422;-69
2021/01/25 02:12:30;;;;;;;6.90;4.93;;;2.30;99.90;;;;;;5044391;28;20450;-69
2021/01/25 02:14:59;;;;;;;7.57;5.43;;;2.40;99.90;;;;;;5051690;28;20764;-67
2021/01/25 02:17:25;;;;;;;7.20;5.67;;;2.40;99.90;;;;;;5048853;28;20412;-69
2021/01/25 02:19:57;;;;;;;8.53;6.13;;;2.40;99.90;;;;;;5051401;28;20908;-69
2021/01/25 02:22:35;;;;;;;8.40;6.37;;;2.50;99.90;;;;;;5051830;28;20195;-70
2021/01/25 02:25:35;;;;;;;7.70;6.00;;;2.40;99.90;;;;;;5051736;28;20413;-67
2021/01/25 02:28:01;;;;;;;8.60;6.63;;;2.20;99.90;;;;;;5051376;28;20741;-68
2021/01/25 02:30:27;;;;;;;7.70;6.27;;;2.10;99.90;;;;;;5051627;28;20421;-69
2021/01/25 02:32:54;;;;;;;10.57;6.63;;;2.00;99.90;;;;;;5049736;28;20449;-67
2021/01/25 02:35:21;;;;;;;7.73;6.80;;;2.00;99.90;;;;;;5033658;28;20425;-68
2021/01/25 02:37:52;;;;;;;7.20;6.47;;;2.10;99.90;;;;;;5051083;28;20974;-69
2021/01/25 02:40:20;;;;;;;9.43;7.23;;;2.00;99.90;;;;;;5051472;28;20516;-66
2021/01/25 02:42:47;;;;;;;8.60;7.13;;;1.90;99.90;;;;;;5051532;28;20440;-68
2021/01/25 02:45:14;;;;;;;8.33;7.00;;;1.80;99.90;;;;;;5051256;28;20895;-66
2021/01/25 02:47:42;;;;;;;10.97;7.50;;;1.80;99.90;;;;;;5042205;28;20417;-69
2021/01/25 02:50:08;;;;;;;11.30;7.70;;;1.80;99.90;;;;;;5050234;28;20492;-67
2021/01/25 02:52:33;;;;;;;8.90;7.83;;;1.80;99.90;;;;;;5051183;28;20611;-66
2021/01/25 02:55:01;;;;;;;9.87;7.70;;;1.90;99.90;;;;;;5051141;28;20237;-67
2021/01/25 02:57:28;;;;;;;12.20;7.93;;;2.00;99.90;;;;;;5051373;28;20182;-69
2021/01/25 02:59:54;;;;;;;12.33;7.30;;;2.10;99.90;;;;;;5051241;28;20425;-67
2021/01/25 03:02:20;;;;;;;8.73;7.40;;;2.00;99.90;;;;;;5051132;28;20429;-70
2021/01/25 03:04:46;;;;;;;8.90;7.47;;;2.00;99.90;;;;;;5051154;28;20171;-66
2021/01/25 03:07:12;;;;;;;9.10;6.77;;;2.00;99.90;;;;;;5051291;28;20487;-67
2021/01/25 03:09:38;;;;;;;9.30;6.70;;;2.20;99.90;;;;;;5051106;28;20194;-67
2021/01/25 03:12:05;;;;;;;10.67;6.90;;;2.20;99.90;;;;;;5051106;28;20258;-69
2021/01/25 03:14:31;;;;;;;9.43;7.10;;;2.30;99.90;;;;;;5045957;28;20172;-68
2021/01/25 03:16:56;;;;;;;10.33;6.80;;;2.30;99.90;;;;;;5050913;28;20417;-69
2021/01/25 03:19:22;;;;;;;8.60;7.00;;;2.30;99.90;;;;;;5051090;28;20418;-68
2021/01/25 03:21:49;;;;;;;10.80;7.00;;;2.30;99.90;;;;;;5050872;28;20183;-68
2021/01/25 03:24:16;;;;;;;10.43;6.30;;;2.40;99.90;;;;;;5050958;28;20202;-66
2021/01/25 03:26:42;;;;;;;9.67;7.20;;;2.30;99.90;;;;;;5043764;28;20505;-67
2021/01/25 03:29:09;;;;;;;11.30;7.43;;;2.30;99.90;;;;;;5039631;28;20442;-68
2021/01/25 03:31:35;;;;;;;10.20;6.93;;;2.20;99.90;;;;;;5041154;28;20626;-67
2021/01/25 03:34:00;;;;;;;11.13;7.10;;;2.20;99.90;;;;;;5036181;28;20497;-67
2021/01/25 03:36:26;;;;;;;9.30;7.63;;;2.20;99.90;;;;;;5048431;28;20641;-69
2021/01/25 03:38:52;;;;;;;12.30;7.90;;;2.20;99.90;;;;;;5034935;28;20211;-67
2021/01/25 03:41:17;;;;;;;9.47;7.83;;;2.20;99.90;;;;;;5045215;28;20258;-68
2021/01/25 03:43:43;;;;;;;11.80;7.80;;;2.30;99.90;;;;;;5053151;28;20630;-66
2021/01/25 03:46:09;;;;;;;10.77;7.63;;;2.20;99.90;;;;;;5052582;28;20202;-69
2021/01/25 03:48:34;;;;;;;10.23;7.77;;;2.20;99.90;;;;;;5039641;28;20190;-68
2021/01/25 03:51:00;;;;;;;12.77;7.97;;;2.20;99.90;;;;;;5043239;28;20217;-67
2021/01/25 03:53:25;;;;;;;9.67;7.27;;;2.10;99.90;;;;;;5046187;28;20262;-67
2021/01/25 03:55:51;;;;;;;9.13;6.70;;;2.20;99.90;;;;;;5044789;28;20561;-68
2021/01/25 03:58:17;;;;;;;9.23;6.50;;;2.10;99.90;;;;;;5034236;28;20168;-68
2021/01/25 04:00:42;;;;;;;10.93;6.63;;;2.00;99.90;;;;;;5039372;28;20178;-68
2021/01/25 04:03:08;;;;;;;9.40;6.90;;;2.00;99.90;;;;;;5037571;28;20262;-68
2021/01/25 04:05:33;;;;;;;8.77;6.50;;;1.90;99.90;;;;;;5053986;28;20183;-67
2021/01/25 04:07:59;;;;;;;8.80;6.53;;;1.90;99.90;;;;;;5035397;28;20264;-69
2021/01/25 04:10:25;;;;;;;10.60;6.63;;;2.00;99.90;;;;;;5054027;28;20499;-68
2021/01/25 04:12:50;;;;;;;9.10;5.93;;;1.90;99.90;;;;;;5054050;28;20238;-67
2021/01/25 04:15:16;;;;;;;9.07;6.80;;;1.90;99.90;;;;;;5043131;28;20188;-69
2021/01/25 04:17:42;;;;;;;10.40;6.30;;;1.90;99.90;;;;;;5053562;28;20647;-67
2021/01/25 04:20:08;;;;;;;10.53;6.33;;;1.80;99.90;;;;;;5043274;28;20263;-68
2021/01/25 04:22:33;;;;;;;9.23;6.83;;;1.70;99.90;;;;;;5039553;28;20226;-68
2021/01/25 04:24:59;;;;;;;7.20;6.43;;;1.70;99.90;;;;;;5054102;28;20461;-68
2021/01/25 04:27:25;;;;;;;8.47;7.10;;;1.80;99.90;;;;;;5053916;28;20637;-67
2021/01/25 04:29:51;;;;;;;8.47;6.47;;;1.80;99.90;;;;;;5033794;28;20215;-70
2021/01/25 04:32:17;;;;;;;8.93;7.33;;;1.90;99.90;;;;;;5048460;28;20201;-66
2021/01/25 04:34:43;;;;;;;10.03;6.70;;;1.90;99.90;;;;;;5050483;28;20432;-69
2021/01/25 04:37:09;;;;;;;8.47;6.30;;;1.90;99.90;;;;;;5053639;28;20418;-68
2021/01/25 04:39:35;;;;;;;8.60;6.97;;;1.90;99.90;;;;;;5050804;28;20540;-68
2021/01/25 04:42:01;;;;;;;9.77;7.10;;;1.90;99.90;;;;;;5047665;28;20191;-70
2021/01/25 04:44:27;;;;;;;9.53;7.43;;;1.90;99.90;;;;;;5034291;28;20529;-67
2021/01/25 04:46:55;;;;;;;10.47;7.40;;;1.90;99.90;;;;;;5041702;28;20206;-69
2021/01/25 04:49:21;;;;;;;8.90;6.60;;;1.90;99.90;;;;;;5043117;28;20233;-70
2021/01/25 04:51:47;;;;;;;8.20;6.40;;;1.90;99.90;;;;;;5053001;28;20406;-68
2021/01/25 04:54:14;;;;;;;7.83;6.63;;;1.80;99.90;;;;;;5035217;28;20457;-70
2021/01/25 04:56:40;;;;;;;9.43;6.80;;;1.80;99.90;;;;;;5050428;28;20504;-68
2021/01/25 04:59:06;;;;;;;11.97;7.13;;;1.80;99.90;;;;;;5053324;28;20865;-69
2021/01/25 05:01:32;;;;;;;10.27;7.47;;;1.70;99.90;;;;;;5053302;28;20466;-69
2021/01/25 05:03:58;;;;;;;10.93;7.43;;;1.70;99.90;;;;;;5052828;28;20262;-68
2021/01/25 05:06:23;;;;;;;9.87;7.40;;;1.70;99.90;;;;;;5053030;28;20186;-69
2021/01/25 05:08:49;;;;;;;10.27;7.60;;;1.70;99.90;;;;;;5049176;28;20667;-67
2021/01/25 05:11:16;;;;;;;8.83;7.57;;;1.70;99.90;;;;;;5052991;28;20266;-69
2021/01/25 05:13:48;;;;;;;10.17;7.50;;;1.70;99.90;;;;;;5052665;28;20561;-70
2021/01/25 05:16:15;;;;;;;9.43;7.07;;;1.70;99.90;;;;;;5030539;28;20421;-69
2021/01/25 05:18:41;;;;;;;10.77;7.40;;;1.60;99.90;;;;;;5052855;28;20504;-66
2021/01/25 05:21:06;;;;;;;10.93;7.77;;;1.50;99.90;;;;;;5052708;28;20545;-67
2021/01/25 05:23:40;;;;;;;9.90;7.77;;;1.50;99.90;;;;;;5052363;28;20183;-65
2021/01/25 05:26:09;;;;;;;11.57;8.60;;;1.50;99.90;;;;;;5045629;28;20221;-69
2021/01/25 05:28:43;;;;;;;10.50;7.53;;;1.60;99.90;;;;;;5052574;28;20502;-69
2021/01/25 05:31:19;;;;;;;11.77;7.73;;;1.60;99.90;;;;;;5050859;28;20954;-70
2021/01/25 05:33:45;;;;;;;10.03;8.20;;;1.60;99.90;;;;;;5052505;28;20457;-69
2021/01/25 05:36:10;;;;;;;13.40;7.67;;;1.70;99.90;;;;;;5039444;28;20930;-70
2021/01/25 05:38:36;;;;;;;9.60;7.73;;;1.60;99.90;;;;;;5051527;28;20710;-69
2021/01/25 05:41:04;;;;;;;10.07;8.00;;;1.60;99.90;;;;;;5052365;28;20203;-67
2021/01/25 05:43:33;;;;;;;11.83;7.90;;;1.60;99.90;;;;;;5052004;28;20174;-69
2021/01/25 05:46:09;;;;;;;11.17;8.87;;;1.70;99.90;;;;;;5044901;28;20422;-69
2021/01/25 05:48:35;;;;;;;10.67;8.30;;;1.70;99.90;;;;;;5033316;28;20884;-68
2021/01/25 05:51:11;;;;;;;10.30;8.30;;;1.70;99.90;;;;;;5038795;28;20418;-69
2021/01/25 05:53:38;;;;;;;13.43;8.13;;;1.70;99.90;;;;;;5029209;28;20207;-68
2021/01/25 05:56:09;;;;;;;10.07;8.90;;;1.60;99.90;;;;;;5029975;28;20417;-68
2021/01/25 05:58:34;;;;;;;14.60;9.20;;;1.60;99.90;;;;;;5051393;28;20418;-68
2021/01/25 06:01:04;;;;;;;9.10;8.07;;;1.60;99.90;;;;;;5051303;28;20981;-67
2021/01/25 06:03:36;;;;;;;9.67;8.17;;;1.60;99.90;;;;;;5051242;28;20245;-64
2021/01/25 06:06:13;;;;;;;11.03;8.53;;;1.60;99.90;;;;;;5038427;28;20917;-64
2021/01/25 06:08:48;;;;;;;11.10;8.57;;;1.60;99.90;;;;;;5047162;28;20451;-68
2021/01/25 06:11:32;;;;;;;11.70;8.57;;;1.60;99.90;;;;;;5046985;28;20475;-67
2021/01/25 06:14:27;;;;;;;11.13;8.70;;;1.60;99.90;;;;;;5050979;28;20460;-69
2021/01/25 06:16:55;;;;;;;10.43;9.00;;;1.50;99.90;;;;;;5050103;28;20436;-65
2021/01/25 06:19:23;;;;;;;13.97;9.13;;;1.50;99.90;;;;;;5038281;28;20419;-68
2021/01/25 06:21:50;;;;;;;12.63;9.43;;;1.40;99.90;;;;;;5031270;28;20423;-65
2021/01/25 06:24:18;;;;;;;10.40;8.63;;;1.50;99.90;;;;;;5037470;28;20426;-68
2021/01/25 06:26:48;;;;;;;10.73;9.23;;;1.60;99.90;;;;;;5045318;28;20411;-67
2021/01/25 06:29:20;;;;;;;13.50;9.87;;;1.60;99.90;;;;;;5047711;28;20428;-66
2021/01/25 06:31:53;;;;;;;11.90;8.87;;;1.60;99.90;;;;;;5045436;28;20509;-65
2021/01/25 06:34:20;;;;;;;11.17;9.10;;;1.60;99.90;;;;;;5049389;28;20491;-65
2021/01/25 06:36:47;;;;;;;16.63;10.40;;;1.60;99.90;;;;;;5035057;28;20414;-66
2021/01/25 06:39:19;;;;;;;13.63;11.13;;;1.60;99.90;;;;;;5051335;28;20734;-65
2021/01/25 06:41:45;;;;;;;12.60;10.73;;;1.50;99.90;;;;;;5050755;28;20406;-67
2021/01/25 06:44:18;;;;;;;12.00;9.80;;;1.60;99.90;;;;;;5050946;28;20422;-65
2021/01/25 06:46:44;;;;;;;12.63;10.23;;;1.60;99.90;;;;;;5051036;28;21153;-64
2021/01/25 06:49:10;;;;;;;14.23;10.63;;;1.60;99.90;;;;;;5051008;28;20998;-63
2021/01/25 06:51:40;;;;;;;14.87;11.13;;;1.60;99.90;;;;;;5050718;28;20179;-70
2021/01/25 06:54:06;;;;;;;15.07;11.27;;;1.60;99.90;;;;;;5050848;28;20545;-66
2021/01/25 06:56:52;;;;;;;17.93;12.40;;;1.50;99.90;;;;;;5050391;28;20420;-63
2021/01/25 06:59:22;;;;;;;15.70;12.57;;;1.50;99.90;;;;;;5040324;28;20453;-65
2021/01/25 07:01:50;;;;;;;15.87;11.50;;;1.50;99.90;;;;;;5049317;28;20405;-66
2021/01/25 07:04:19;;;;;;;16.77;11.97;;;1.50;99.90;;;;;;5051681;28;20512;-64
2021/01/25 07:06:50;;;;;;;15.63;10.93;;;1.50;99.90;;;;;;5054620;28;20428;-65
2021/01/25 07:09:30;;;;;;;14.47;11.33;;;1.50;99.90;;;;;;5052149;28;20781;-64
2021/01/25 07:12:04;;;;;;;13.80;11.57;;;1.50;99.90;;;;;;5049472;28;20503;-65
2021/01/25 07:14:31;;;;;;;13.10;11.27;;;1.50;99.90;;;;;;5053558;28;20439;-66
2021/01/25 07:16:59;;;;;;;14.10;11.37;;;1.50;99.90;;;;;;5054153;28;20439;-65
2021/01/25 07:19:25;;;;;;;18.90;13.17;;;1.50;99.90;;;;;;5054281;28;20991;-64
2021/01/25 07:21:52;;;;;;;16.87;11.83;;;1.50;99.90;;;;;;5053107;28;20422;-64
2021/01/25 07:24:20;;;;;;;19.03;12.30;;;1.60;99.90;;;;;;5054356;28;20421;-66
2021/01/25 07:26:50;;;;;;;19.23;12.63;;;1.70;99.90;;;;;;5054193;28;20426;-69
2021/01/25 07:29:16;;;;;;;18.60;12.67;;;1.70;99.90;;;;;;5054331;28;20413;-66
2021/01/25 07:31:41;;;;;;;17.73;13.10;;;1.70;99.90;;;;;;5054178;28;20440;-68
2021/01/25 07:34:11;;;;;;;19.00;12.90;;;1.70;99.90;;;;;;5047920;28;20601;-69
2021/01/25 07:36:37;;;;;;;19.53;13.83;;;1.60;99.90;;;;;;5039669;28;20312;-68
2021/01/25 07:39:07;;;;;;;17.33;13.60;;;1.60;99.90;;;;;;5054029;28;20492;-67
2021/01/25 07:41:33;;;;;;;17.37;13.33;;;1.60;99.90;;;;;;5028840;28;20446;-70
2021/01/25 07:44:00;;;;;;;21.13;13.70;;;1.60;99.90;;;;;;5034239;28;20433;-66
2021/01/25 07:46:26;;;;;;;18.33;13.83;;;1.60;99.90;;;;;;5034069;28;20622;-65
2021/01/25 07:48:53;;;;;;;15.57;11.90;;;1.60;99.90;;;;;;5053948;28;20421;-68
2021/01/25 07:51:20;;;;;;;19.53;13.33;;;1.70;99.90;;;;;;5042492;28;20183;-66
2021/01/25 07:53:46;;;;;;;18.07;13.27;;;1.60;99.90;;;;;;5053934;28;20495;-66
2021/01/25 07:56:16;;;;;;;19.33;13.77;;;1.70;99.90;;;;;;5048082;28;20812;-67
2021/01/25 07:58:42;;;;;;;17.33;13.67;;;1.70;99.90;;;;;;5053820;28;20178;-67
2021/01/25 08:01:15;;;;;;;19.77;13.00;;;1.80;99.90;;;;;;5046677;28;20915;-68
2021/01/25 08:03:43;;;;;;;16.40;12.57;;;1.90;99.90;;;;;;5053758;28;20679;-67
2021/01/25 08:06:11;;;;;;;16.93;12.37;;;1.90;99.90;;;;;;5053373;28;20479;-68
2021/01/25 08:08:37;;;;;;;15.63;12.37;;;2.00;99.90;;;;;;5053780;28;20452;-66
2021/01/25 08:11:07;;;;;;;16.17;12.23;;;2.00;99.90;;;;;;5053555;28;20869;-66
2021/01/25 08:13:55;;;;;;;17.33;13.30;;;2.00;99.90;;;;;;5053208;28;20493;-67
2021/01/25 08:16:25;;;;;;;16.97;13.40;;;2.10;99.90;;;;;;5052710;28;20453;-70
2021/01/25 08:19:06;;;;;;;16.67;11.97;;;2.10;99.90;;;;;;5053364;28;20801;-68
2021/01/25 08:21:37;;;;;;;17.00;12.43;;;2.10;99.90;;;;;;5053267;28;20920;-67
2021/01/25 08:24:07;;;;;;;15.53;11.80;;;2.20;99.90;;;;;;5051868;28;20418;-67
2021/01/25 08:26:33;;;;;;;16.40;12.70;;;2.10;99.90;;;;;;5053056;28;20427;-69
2021/01/25 08:29:06;;;;;;;16.43;12.50;;;2.00;99.90;;;;;;5049880;28;20507;-66
2021/01/25 08:31:39;;;;;;;15.40;11.50;;;2.10;99.90;;;;;;5052020;28;20406;-69
2021/01/25 08:34:16;;;;;;;16.07;11.73;;;2.10;99.90;;;;;;5053526;28;20468;-67
2021/01/25 08:36:42;;;;;;;16.73;12.30;;;2.10;99.90;;;;;;5052621;28;20496;-67
2021/01/25 08:39:09;;;;;;;15.33;11.60;;;2.10;99.90;;;;;;5045912;28;20987;-68
2021/01/25 08:41:36;;;;;;;16.37;11.80;;;2.10;99.90;;;;;;5052965;28;20500;-68
2021/01/25 08:44:11;;;;;;;17.80;12.47;;;2.10;99.90;;;;;;5052741;28;20935;-68
2021/01/25 08:46:38;;;;;;;15.93;11.30;;;2.20;99.90;;;;;;5042820;28;20418;-66
2021/01/25 08:49:07;;;;;;;13.80;11.03;;;2.10;99.90;;;;;;5032444;28;20456;-67
2021/01/25 08:51:34;;;;;;;15.00;10.70;;;2.10;99.90;;;;;;5052734;28;20422;-65
2021/01/25 08:54:23;;;;;;;13.90;10.33;;;2.20;99.90;;;;;;5052599;28;20489;-66
2021/01/25 08:56:49;;;;;;;12.43;9.77;;;2.30;99.90;;;;;;5052851;28;20414;-65
2021/01/25 08:59:26;;;;;;;12.00;10.10;;;2.20;99.90;;;;;;5052655;28;20416;-65
2021/01/25 09:01:53;;;;;;;12.87;10.00;;;2.20;99.90;;;;;;5052552;28;20177;-67
2021/01/25 09:04:19;;;;;;;11.30;9.60;;;2.20;99.90;;;;;;5052449;28;20429;-67
2021/01/25 09:06:53;;;;;;;12.23;9.93;;;2.20;99.90;;;;;;5049143;28;20410;-65
2021/01/25 09:09:20;;;;;;;11.23;9.60;;;2.30;99.90;;;;;;5051604;28;20794;-65
2021/01/25 09:11:47;;;;;;;12.97;9.77;;;2.30;99.90;;;;;;5052397;28;20890;-65
2021/01/25 09:14:17;;;;;;;11.70;9.77;;;2.30;99.90;;;;;;5043914;28;20819;-67
2021/01/25 09:16:43;;;;;;;13.47;9.57;;;2.40;99.90;;;;;;5051506;28;20417;-68
2021/01/25 09:19:09;;;;;;;14.93;9.67;;;2.40;99.90;;;;;;5052222;28;20441;-64
2021/01/25 09:21:34;;;;;;;12.83;9.67;;;2.50;99.90;;;;;;5052334;28;20460;-67
2021/01/25 09:24:00;;;;;;;13.03;9.43;;;2.50;99.90;;;;;;5052293;28;20664;-66
2021/01/25 09:26:26;;;;;;;10.43;8.77;;;2.60;99.90;;;;;;5041767;28;20187;-65
2021/01/25 09:28:51;;;;;;;12.23;9.70;;;2.70;99.90;;;;;;5041989;28;20682;-65
2021/01/25 09:31:18;;;;;;;12.70;9.27;;;2.80;99.90;;;;;;5051955;28;20629;-67
2021/01/25 09:33:44;;;;;;;8.87;7.90;;;2.80;99.90;;;;;;5051822;28;20199;-65
2021/01/25 09:36:10;;;;;;;10.17;9.00;;;2.90;99.90;;;;;;5051900;28;20425;-65
2021/01/25 09:38:35;;;;;;;12.37;8.23;;;2.90;99.90;;;;;;5051956;28;20630;-66
2021/01/25 09:41:01;;;;;;;13.23;8.40;;;2.90;99.90;;;;;;5046554;28;20167;-66
2021/01/25 09:43:27;;;;;;;10.20;8.80;;;2.90;99.90;;;;;;5044739;28;20176;-64
2021/01/25 09:45:52;;;;;;;11.90;8.67;;;2.90;99.90;;;;;;5042730;28;20709;-66
2021/01/25 09:48:36;;;;;;;14.63;8.83;;;3.00;99.90;;;;;;4790044;27;7732867;-64
2021/01/25 09:51:02;;;;;;;12.13;9.93;;;3.00;99.90;;;;;;5054326;28;20183;-64
2021/01/25 09:53:27;;;;;;;13.97;9.70;;;3.10;99.90;;;;;;5066922;28;20948;-66
2021/01/25 09:55:55;;;;;;;10.10;8.87;;;3.10;99.90;;;;;;5061261;28;20207;-67
2021/01/25 09:58:22;;;;;;;11.97;8.37;;;3.20;99.90;;;;;;5057975;28;20174;-66
2021/01/25 10:00:49;;;;;;;11.57;9.63;;;3.20;99.90;;;;;;5055302;28;20424;-66
2021/01/25 10:03:15;;;;;;;13.40;10.37;;;3.30;99.90;;;;;;5067311;28;20467;-65
2021/01/25 10:05:40;;;;;;;16.10;10.00;;;3.30;99.90;;;;;;5053511;28;20453;-65
2021/01/25 10:08:06;;;;;;;15.23;10.70;;;3.20;99.90;;;;;;5062602;28;20198;-66
2021/01/25 10:10:31;;;;;;;18.30;11.47;;;3.20;99.90;;;;;;5067995;28;20533;-65
2021/01/25 10:12:57;;;;;;;23.67;10.30;;;3.20;99.90;;;;;;5051124;28;20179;-63
2021/01/25 10:15:24;;;;;;;10.37;7.13;;;3.20;99.90;;;;;;5066893;28;20178;-65
2021/01/25 10:17:49;;;;;;;10.67;6.97;;;3.10;99.90;;;;;;5060978;28;20209;-64
2021/01/25 10:20:15;;;;;;;8.30;6.80;;;3.10;99.90;;;;;;5059604;28;20912;-66
2021/01/25 10:22:41;;;;;;;10.30;7.33;;;3.10;99.90;;;;;;5067657;28;20207;-66
2021/01/25 10:25:09;;;;;;;13.70;7.17;;;3.10;99.90;;;;;;5067619;28;20413;-65
2021/01/25 10:27:37;;;;;;;9.00;7.27;;;3.00;99.90;;;;;;5058217;28;20206;-65
2021/01/25 10:30:08;;;;;;;13.73;7.23;;;2.90;99.90;;;;;;5066207;28;20467;-64
2021/01/25 10:32:34;;;;;;;12.93;8.40;;;2.90;99.90;;;;;;5067670;28;20417;-63
2021/01/25 10:35:00;;;;;;;18.00;9.87;;;2.80;99.90;;;;;;5064653;28;20926;-63
2021/01/25 10:37:26;;;;;;;9.37;8.00;;;2.80;99.90;;;;;;5053768;28;20198;-65
2021/01/25 10:39:52;;;;;;;11.20;8.77;;;2.80;99.90;;;;;;5052479;28;20700;-66
2021/01/25 10:42:18;;;;;;;12.67;8.90;;;2.80;99.90;;;;;;5064586;28;20428;-66
2021/01/25 10:44:44;;;;;;;12.87;8.37;;;2.90;99.90;;;;;;5062049;28;20175;-65
2021/01/25 10:47:18;;;;;;;13.43;9.60;;;3.00;99.90;;;;;;5067462;28;20475;-65
2021/01/25 10:49:44;;;;;;;12.60;9.03;;;3.10;99.90;;;;;;5059528;28;20189;-65
2021/01/25 10:52:10;;;;;;;11.33;8.23;;;3.20;99.90;;;;;;5046932;28;20414;-64
2021/01/25 10:54:36;;;;;;;9.33;7.67;;;3.20;99.90;;;;;;5055040;28;20419;-65
2021/01/25 10:57:01;;;;;;;10.43;7.33;;;3.30;99.90;;;;;;5054832;28;20194;-65
2021/01/25 10:59:29;;;;;;;12.23;7.60;;;3.40;99.90;;;;;;5048871;28;20186;-65
2021/01/25 11:01:54;;;;;;;13.67;8.43;;;3.60;99.90;;;;;;5051335;28;21465;-64
2021/01/25 11:04:20;;;;;;;11.67;9.10;;;3.70;99.90;;;;;;5050789;28;20422;-67
2021/01/25 11:06:48;;;;;;;11.57;8.47;;;3.80;99.90;;;;;;5053524;28;20681;-68
2021/01/25 11:09:13;;;;;;;10.73;6.77;;;4.00;99.90;;;;;;5053657;28;20205;-65
2021/01/25 11:11:39;;;;;;;7.97;5.60;;;4.10;99.90;;;;;;5049567;28;20419;-67
2021/01/25 11:14:04;;;;;;;9.77;5.10;;;4.30;99.90;;;;;;5033637;28;20179;-67
2021/01/25 11:16:30;;;;;;;5.63;4.63;;;4.50;99.90;;;;;;5033424;28;20626;-67
2021/01/25 11:18:56;;;;;;;4.77;3.33;;;4.60;99.90;;;;;;5032596;28;20215;-65
2021/01/25 11:21:21;;;;;;;4.30;2.83;;;4.70;99.90;;;;;;5033417;28;20180;-64
2021/01/25 11:23:49;;;;;;;4.03;3.50;;;4.60;99.90;;;;;;5049730;28;20266;-67
2021/01/25 11:26:17;;;;;;;3.57;3.27;;;4.70;99.90;;;;;;5033380;28;20186;-66
2021/01/25 11:28:42;;;;;;;4.33;3.50;;;4.70;99.90;;;;;;5052846;28;20556;-65
2021/01/25 11:31:08;;;;;;;3.27;2.97;;;4.70;99.90;;;;;;5053063;28;20429;-64
2021/01/25 11:33:34;;;;;;;3.70;3.07;;;4.70;99.90;;;;;;5042044;28;20172;-64
2021/01/25 11:36:00;;;;;;;3.47;3.17;;;4.70;99.90;;;;;;5046814;28;20172;-67
2021/01/25 11:38:26;;;;;;;5.40;3.73;;;4.70;99.90;;;;;;5033443;28;20266;-68
2021/01/25 11:40:51;;;;;;;4.13;2.80;;;4.70;99.90;;;;;;5032921;28;20229;-66
2021/01/25 11:43:17;;;;;;;3.33;3.03;;;4.90;99.90;;;;;;5032988;28;20418;-67
2021/01/25 11:45:43;;;;;;;3.27;2.77;;;5.00;99.90;;;;;;5034221;28;20191;-67
2021/01/25 11:48:09;;;;;;;2.93;2.63;;;5.00;99.90;;;;;;5053004;28;20218;-64
2021/01/25 11:50:35;;;;;;;3.30;2.80;;;5.10;99.90;;;;;;5022657;28;20835;-66
2021/01/25 11:53:00;;;;;;;4.13;2.37;;;5.10;99.90;;;;;;5051102;28;20410;-65
2021/01/25 11:55:26;;;;;;;3.10;2.73;;;5.20;99.90;;;;;;5052682;28;20639;-65
2021/01/25 11:57:51;;;;;;;2.90;2.60;;;5.20;99.90;;;;;;5033212;28;20184;-66
2021/01/25 12:00:17;;;;;;;3.17;2.23;;;5.20;99.90;;;;;;5032651;28;20196;-67
2021/01/25 12:02:44;;;;;;;3.47;2.60;;;5.20;99.90;;;;;;5032900;28;20186;-64
2021/01/25 12:05:11;;;;;;;2.43;2.23;;;5.20;99.90;;;;;;5032267;28;20417;-66
2021/01/25 12:07:37;;;;;;;3.03;2.47;;;5.10;99.90;;;;;;5042043;28;20825;-66
2021/01/25 12:10:06;;;;;;;2.47;2.27;;;5.10;99.90;;;;;;5048343;28;20409;-66
2021/01/25 12:12:32;;;;;;;5.23;3.70;;;5.10;99.90;;;;;;5052560;28;20571;-67
2021/01/25 12:14:57;;;;;;;9.90;7.17;;;5.10;99.90;;;;;;5052296;28;20441;-67
2021/01/25 12:17:23;;;;;;;4.43;4.03;;;5.00;99.90;;;;;;5052114;28;20484;-64
2021/01/25 12:19:48;;;;;;;3.67;3.30;;;4.90;99.90;;;;;;5036570;28;20608;-68
2021/01/25 12:22:15;;;;;;;3.67;3.37;;;4.80;99.90;;;;;;5035761;28;20179;-67
2021/01/25 12:24:41;;;;;;;2.97;2.50;;;4.80;99.90;;;;;;5049208;28;20185;-66
2021/01/25 12:27:07;;;;;;;2.67;2.40;;;4.80;99.90;;;;;;5051898;28;20536;-65
2021/01/25 12:29:33;;;;;;;3.27;2.87;;;4.90;99.90;;;;;;5045108;28;20187;-69
2021/01/25 12:31:59;;;;;;;4.57;3.40;;;4.80;99.90;;;;;;5037925;28;20411;-64
2021/01/25 12:34:26;;;;;;;4.73;3.50;;;4.80;99.90;;;;;;5048601;28;20175;-64
2021/01/25 12:36:53;;;;;;;3.40;2.87;;;4.80;99.90;;;;;;5036371;28;20266;-65
2021/01/25 12:39:19;;;;;;;2.73;2.33;;;4.70;99.90;;;;;;5051723;28;20479;-66
2021/01/25 12:41:46;;;;;;;2.80;2.50;;;4.70;99.90;;;;;;5064559;28;20405;-66
2021/01/25 12:44:12;;;;;;;2.80;2.37;;;4.60;99.90;;;;;;5055363;28;20428;-65
2021/01/25 12:46:37;;;;;;;2.80;2.47;;;4.60;99.90;;;;;;5053324;28;21287;-67
2021/01/25 12:49:05;;;;;;;3.70;3.07;;;4.70;99.90;;;;;;5051666;28;20230;-64
2021/01/25 12:51:32;;;;;;;2.60;2.40;;;4.70;99.90;;;;;;5041451;28;20180;-66